Time;durP1;ratioP1;P1;durP2;ratioP2;P2;SDS_P1;SDS_P2;PMS_P1;PMS_P2;Temp;Humidity;BMP_temperature;BMP_pressure;BME280_temperature;BME280_humidity;BME280_pressure;Samples;Min_cycle;Max_cycle;Signal;HPM_P1;HPM_P2
2022/04/03 00:01:42;;;;;;;7.88;5.93;;;;;;;12.55;65.34;99567.78;4954154;28;103940;-51
2022/04/03 00:04:09;;;;;;;7.30;5.70;;;;;;;12.56;65.35;99581.13;4956017;28;102434;-51
2022/04/03 00:06:36;;;;;;;7.45;5.68;;;;;;;12.56;65.38;99575.66;4962803;28;102412;-52
2022/04/03 00:09:05;;;;;;;6.47;5.40;;;;;;;12.55;65.27;99571.34;4975776;28;102222;-51
2022/04/03 00:11:32;;;;;;;8.30;6.30;;;;;;;12.56;64.92;99564.75;4954956;28;103743;-52
2022/04/03 00:13:59;;;;;;;6.88;5.88;;;;;;;12.56;65.25;99572.94;4954545;28;102538;-52
2022/04/03 00:16:26;;;;;;;7.65;6.10;;;;;;;12.56;65.37;99572.94;4954798;28;102341;-51
2022/04/03 00:18:53;;;;;;;7.55;6.22;;;;;;;12.56;65.53;99572.94;4955943;28;102573;-51
2022/04/03 00:21:20;;;;;;;7.32;5.95;;;;;;;12.55;65.39;99571.34;4963666;28;103930;-51
2022/04/03 00:23:48;;;;;;;6.95;6.00;;;;;;;12.54;65.24;99569.72;4972544;28;102500;-51
2022/04/03 00:26:16;;;;;;;6.72;5.95;;;;;;;12.55;65.37;99563.16;4973745;28;102364;-51
2022/04/03 00:28:43;;;;;;;6.95;5.95;;;;;;;12.56;65.30;99564.75;4975390;28;101954;-52
2022/04/03 00:31:10;;;;;;;8.38;6.28;;;;;;;12.55;65.04;99552.25;4964309;28;104008;-52
2022/04/03 00:33:37;;;;;;;7.55;6.22;;;;;;;12.54;64.84;99553.34;4974154;28;102029;-52
2022/04/03 00:36:04;;;;;;;7.70;6.28;;;;;;;12.54;65.31;99539.69;4973857;28;102489;-52
2022/04/03 00:38:31;;;;;;;7.22;6.13;;;;;;;12.55;65.29;99540.50;4975044;28;102642;-52
2022/04/03 00:41:00;;;;;;;7.13;6.03;;;;;;;12.54;65.26;99536.16;4968105;28;103967;-51
2022/04/03 00:43:27;;;;;;;;;;;;;;;12.53;65.28;99526.38;4966222;28;102412;-57
2022/04/03 00:45:55;;;;;;;7.57;6.30;;;;;;;12.54;65.32;99533.44;4973611;28;101866;-52
2022/04/03 00:48:22;;;;;;;9.95;6.18;;;;;;;12.53;65.34;99538.09;4975077;28;102543;-52
2022/04/03 00:50:51;;;;;;;6.32;5.72;;;;;;;12.53;65.65;99549.00;4969853;28;104548;-51
2022/04/03 00:53:17;;;;;;;7.38;6.43;;;;;;;12.53;65.40;99565.38;4974296;28;101931;-51
2022/04/03 00:55:44;;;;;;;8.00;6.28;;;;;;;12.53;65.50;99567.31;4973429;28;102042;-51
2022/04/03 00:58:11;;;;;;;8.27;6.57;;;;;;;12.53;65.29;99559.91;4974952;28;102366;-51
2022/04/03 01:00:39;;;;;;;8.55;6.47;;;;;;;12.53;65.41;99565.38;4954867;28;104950;-51
2022/04/03 01:03:07;;;;;;;8.73;6.47;;;;;;;12.53;65.34;99565.38;4954186;28;101923;-52
2022/04/03 01:05:33;;;;;;;8.00;7.10;;;;;;;12.52;65.54;99558.31;4960867;28;102348;-51
2022/04/03 01:08:03;;;;;;;8.82;6.82;;;;;;;12.53;65.53;99565.38;4955275;28;102291;-52
2022/04/03 01:10:30;;;;;;;8.93;6.63;;;;;;;12.54;65.34;99577.09;4968515;28;103604;-52
2022/04/03 01:12:57;;;;;;;7.65;6.20;;;;;;;12.54;65.52;99577.91;4972510;28;101780;-51
2022/04/03 01:15:24;;;;;;;8.15;6.47;;;;;;;12.54;65.43;99574.38;4953714;28;102321;-51
2022/04/03 01:17:53;;;;;;;7.70;6.22;;;;;;;12.54;65.63;99571.63;4955039;28;102552;-51
2022/04/03 01:20:20;;;;;;;7.65;5.93;;;;;;;12.54;65.46;99575.16;4953954;28;103922;-52
2022/04/03 01:22:47;;;;;;;7.15;6.10;;;;;;;12.53;65.26;99576.28;4967804;28;102006;-51
2022/04/03 01:25:15;;;;;;;7.63;5.88;;;;;;;12.54;65.09;99583.34;4963925;28;102331;-52
2022/04/03 01:27:54;;;;;;;6.88;5.75;;;;;;;12.54;65.26;99583.34;4956571;28;101933;-52
2022/04/03 01:30:21;;;;;;;6.95;5.82;;;;;;;12.53;65.62;99581.75;4972227;28;103870;-51
2022/04/03 01:32:47;;;;;;;7.45;5.78;;;;;;;12.53;65.39;99581.75;4966626;28;102382;-52
2022/04/03 01:35:13;;;;;;;7.50;6.43;;;;;;;12.54;65.39;99588.00;4958717;28;102292;-51
2022/04/03 01:37:40;;;;;;;6.80;6.05;;;;;;;12.54;65.31;99577.91;4954833;28;102424;-51
2022/04/03 01:40:09;;;;;;;7.25;5.95;;;;;;;12.54;65.38;99585.28;4952812;28;103853;-51
2022/04/03 01:42:37;;;;;;;8.13;6.05;;;;;;;12.54;65.28;99575.16;4953555;28;102089;-52
2022/04/03 01:45:06;;;;;;;8.48;6.18;;;;;;;12.54;65.46;99572.44;4957094;28;102457;-52
2022/04/03 01:47:40;;;;;;;8.25;6.28;;;;;;;12.53;65.27;99570.84;4953058;28;102496;-51
2022/04/03 01:50:07;;;;;;;8.90;6.47;;;;;;;12.54;65.55;99572.44;4953729;28;104044;-51
2022/04/03 01:52:34;;;;;;;8.00;6.47;;;;;;;12.53;65.51;99581.75;4953604;28;102306;-52
2022/04/03 01:55:01;;;;;;;8.43;6.13;;;;;;;12.53;65.33;99581.75;4958260;28;101848;-51
2022/04/03 01:57:27;;;;;;;6.53;5.50;;;;;;;12.54;65.46;99583.34;4973661;28;102553;-51
2022/04/03 01:59:55;;;;;;;8.40;6.68;;;;;;;12.53;65.39;99589.94;4972653;28;103846;-51
2022/04/03 02:02:22;;;;;;;8.02;5.90;;;;;;;12.53;65.33;99573.56;4972656;28;102170;-52
2022/04/03 02:04:49;;;;;;;8.32;6.18;;;;;;;12.53;65.72;99581.75;4971619;28;102183;-51
2022/04/03 02:07:15;;;;;;;8.60;6.25;;;;;;;12.54;65.27;99577.09;4973483;28;102698;-51
2022/04/03 02:09:42;;;;;;;9.15;6.75;;;;;;;12.53;65.37;99576.28;4972167;28;103941;-51
2022/04/03 02:12:10;;;;;;;7.82;6.07;;;;;;;12.54;65.49;99574.38;4955639;28;102248;-52
2022/04/03 02:14:36;;;;;;;9.02;6.43;;;;;;;12.53;65.33;99570.84;4952002;28;102225;-53
2022/04/03 02:17:04;;;;;;;10.32;6.65;;;;;;;12.54;65.45;99579.81;4954255;28;102419;-52
2022/04/03 02:19:31;;;;;;;8.50;5.95;;;;;;;12.53;65.26;99581.75;4952602;28;104009;-52
2022/04/03 02:22:00;;;;;;;7.63;6.25;;;;;;;12.53;65.29;99581.75;4953395;28;103263;-51
2022/04/03 02:24:27;;;;;;;9.15;6.47;;;;;;;12.54;65.47;99588.00;4956268;28;102132;-51
2022/04/03 02:26:54;;;;;;;7.80;5.75;;;;;;;12.54;65.56;99586.09;4972752;28;102226;-51
2022/04/03 02:29:20;;;;;;;8.13;6.18;;;;;;;12.54;65.33;99585.28;4972334;28;103829;-51
2022/04/03 02:31:47;;;;;;;7.30;5.78;;;;;;;12.53;65.40;99579.03;4966756;28;102477;-51
2022/04/03 02:34:17;;;;;;;7.68;5.53;;;;;;;12.53;65.41;99581.75;4955726;28;102275;-51
2022/04/03 02:36:46;;;;;;;8.27;5.95;;;;;;;12.53;65.31;99591.88;4966000;28;102364;-51
2022/04/03 02:39:15;;;;;;;6.88;6.00;;;;;;;12.53;65.45;99592.66;4953269;28;103615;-52
2022/04/03 02:41:42;;;;;;;7.25;5.82;;;;;;;12.53;65.38;99598.13;4966600;28;102047;-51
2022/04/03 02:44:09;;;;;;;8.73;5.55;;;;;;;12.54;65.40;99601.66;4964781;28;102065;-51
2022/04/03 02:46:36;;;;;;;7.97;6.05;;;;;;;12.53;65.40;99592.66;4959715;28;102136;-52
2022/04/03 02:49:03;;;;;;;8.30;6.25;;;;;;;12.53;65.21;99603.59;4973011;28;103935;-52
2022/04/03 02:51:31;;;;;;;8.88;5.78;;;;;;;12.54;65.46;99599.72;4972468;28;102450;-55
2022/04/03 02:53:58;;;;;;;6.50;5.37;;;;;;;12.53;65.42;99594.59;4971746;28;102022;-51
2022/04/03 02:56:24;;;;;;;6.60;5.47;;;;;;;12.53;65.39;99589.94;4973264;28;102182;-51
2022/04/03 02:58:53;;;;;;;8.20;5.93;;;;;;;12.53;65.44;99587.22;4971972;28;104065;-51
2022/04/03 03:01:20;;;;;;;7.65;5.80;;;;;;;12.53;65.30;99576.28;4971232;28;102516;-52
2022/04/03 03:03:48;;;;;;;7.23;5.83;;;;;;;12.53;65.37;99570.03;4968171;28;102672;-51
2022/04/03 03:06:17;;;;;;;7.03;5.53;;;;;;;12.53;65.58;99570.03;4960706;28;102240;-52
2022/04/03 03:09:02;;;;;;;7.63;5.63;;;;;;;12.53;65.51;99567.31;4970595;28;104099;-51
2022/04/03 03:11:29;;;;;;;8.68;5.60;;;;;;;12.52;65.43;99563.78;4972734;28;102497;-52
2022/04/03 03:13:57;;;;;;;6.82;5.38;;;;;;;12.53;65.38;99565.38;4972345;28;102034;-51
2022/04/03 03:16:24;;;;;;;7.95;6.07;;;;;;;12.53;65.38;99559.91;4960598;28;102092;-51
2022/04/03 03:18:54;;;;;;;7.10;5.10;;;;;;;12.53;65.25;99565.38;4951846;28;103928;-51
2022/04/03 03:21:24;;;;;;;7.10;5.40;;;;;;;12.54;65.38;99569.72;4961114;28;102046;-51
2022/04/03 03:23:50;;;;;;;6.25;5.18;;;;;;;12.52;65.33;99569.22;4971281;28;101970;-52
2022/04/03 03:26:20;;;;;;;8.00;5.45;;;;;;;12.53;65.38;99579.03;4966126;28;102624;-52
2022/04/03 03:28:46;;;;;;;7.60;5.70;;;;;;;12.52;65.38;99569.22;4971365;28;104045;-51
2022/04/03 03:31:14;;;;;;;6.45;5.40;;;;;;;12.52;65.35;99573.88;4973571;28;102128;-51
2022/04/03 03:33:41;;;;;;;6.32;5.38;;;;;;;12.52;65.15;99580.16;4971354;28;102442;-52
2022/04/03 03:36:09;;;;;;;6.75;5.05;;;;;;;12.52;65.35;99582.88;4972129;28;102492;-51
2022/04/03 03:38:37;;;;;;;7.13;5.03;;;;;;;12.52;65.26;99577.41;4969728;28;104057;-52
2022/04/03 03:41:04;;;;;;;5.97;5.38;;;;;;;12.52;65.43;99585.59;4964479;28;102195;-51
2022/04/03 03:43:32;;;;;;;6.85;5.40;;;;;;;12.52;65.40;99579.34;4961371;28;102235;-52
2022/04/03 03:45:59;;;;;;;7.57;5.35;;;;;;;12.52;65.43;99584.81;4972693;28;102424;-52
2022/04/03 03:48:25;;;;;;;6.97;5.53;;;;;;;12.52;65.51;99577.41;4970155;28;103133;-51
2022/04/03 03:50:52;;;;;;;6.63;5.20;;;;;;;12.52;65.46;99580.16;4971766;28;102569;-52
2022/04/03 03:53:19;;;;;;;5.60;5.05;;;;;;;12.52;65.33;99582.06;4972844;28;101849;-51
2022/04/03 03:55:49;;;;;;;7.65;5.85;;;;;;;12.53;65.58;99586.41;4972854;28;103341;-51
2022/04/03 03:58:15;;;;;;;6.90;5.70;;;;;;;12.52;65.56;99588.34;4970395;28;103416;-52
2022/04/03 04:00:44;;;;;;;6.78;5.60;;;;;;;12.50;65.41;99571.44;4974180;28;102114;-51
2022/04/03 04:03:11;;;;;;;7.80;5.33;;;;;;;12.52;65.44;99573.88;4972976;28;102451;-52
2022/04/03 04:05:37;;;;;;;8.20;5.63;;;;;;;12.51;65.45;99567.59;4974492;28;102559;-52
2022/04/03 04:08:04;;;;;;;7.22;5.55;;;;;;;12.52;65.37;99573.88;4974656;28;104007;-51
2022/04/03 04:10:32;;;;;;;6.63;5.35;;;;;;;12.50;65.45;99566.78;4975056;28;102430;-51
2022/04/03 04:12:59;;;;;;;7.65;5.90;;;;;;;12.51;65.48;99567.59;4973322;28;102390;-51
2022/04/03 04:15:27;;;;;;;6.35;5.32;;;;;;;12.50;65.50;99583.16;4973118;28;102620;-51
2022/04/03 04:17:56;;;;;;;6.57;5.85;;;;;;;12.51;65.45;99583.97;4974087;28;103654;-52
2022/04/03 04:20:23;;;;;;;6.68;5.32;;;;;;;12.51;65.35;99592.16;4975228;28;102541;-52
2022/04/03 04:22:52;;;;;;;7.30;5.07;;;;;;;12.49;65.60;99584.28;4973187;28;102082;-51
2022/04/03 04:25:20;;;;;;;5.95;5.35;;;;;;;12.50;65.45;99576.91;4975635;28;102478;-51
2022/04/03 04:27:48;;;;;;;7.15;6.00;;;;;;;12.50;65.42;99574.19;4973431;28;104267;-52
2022/04/03 04:30:15;;;;;;;6.82;5.32;;;;;;;12.50;65.47;99574.19;4974892;28;101861;-51
2022/04/03 04:32:43;;;;;;;7.80;6.07;;;;;;;12.50;65.45;99576.91;4973722;28;102019;-51
2022/04/03 04:35:11;;;;;;;7.53;6.70;;;;;;;12.49;65.47;99569.84;4975258;28;102190;-52
2022/04/03 04:37:41;;;;;;;8.38;6.40;;;;;;;12.50;65.39;99563.28;4973263;28;103905;-51
2022/04/03 04:40:09;;;;;;;7.23;5.90;;;;;;;12.48;65.55;99555.41;4954800;28;102478;-52
2022/04/03 04:42:37;;;;;;;8.60;5.80;;;;;;;12.48;65.55;99546.41;4973662;28;101932;-52
2022/04/03 04:45:06;;;;;;;8.18;6.18;;;;;;;12.48;65.45;99557.34;4969618;28;102301;-51
2022/04/03 04:47:34;;;;;;;6.38;5.60;;;;;;;12.47;65.41;99556.50;4964477;28;103960;-51
2022/04/03 04:50:01;;;;;;;7.60;5.97;;;;;;;12.48;65.47;99562.78;4961348;28;102376;-52
2022/04/03 04:52:30;;;;;;;8.77;5.72;;;;;;;12.49;65.41;99558.94;4973454;28;101982;-52
2022/04/03 04:54:56;;;;;;;7.57;6.03;;;;;;;12.49;65.36;99564.41;4963640;28;102122;-51
2022/04/03 04:57:23;;;;;;;8.25;5.70;;;;;;;12.49;65.33;99565.19;4972823;28;103861;-51
2022/04/03 04:59:49;;;;;;;7.22;5.63;;;;;;;12.50;65.07;99563.28;4974614;28;101905;-52
2022/04/03 05:02:16;;;;;;;6.82;5.53;;;;;;;12.50;65.20;99566.00;4972257;28;101968;-51
2022/04/03 05:04:42;;;;;;;6.82;5.82;;;;;;;12.50;65.38;99571.44;4968609;28;102234;-51
2022/04/03 05:07:11;;;;;;;6.50;5.43;;;;;;;12.49;65.27;99564.41;4973139;28;103978;-51
2022/04/03 05:09:39;;;;;;;8.57;5.80;;;;;;;12.50;65.33;99571.44;4974021;28;102232;-52
2022/04/03 05:12:07;;;;;;;6.75;5.70;;;;;;;12.50;65.23;99576.91;4968888;28;102949;-51
2022/04/03 05:14:34;;;;;;;8.10;5.78;;;;;;;12.50;65.31;99576.91;4956680;28;102811;-51
2022/04/03 05:17:01;;;;;;;7.57;5.70;;;;;;;12.49;65.31;99581.56;4956817;28;103965;-51
2022/04/03 05:19:29;;;;;;;9.05;5.32;;;;;;;12.51;65.12;99575.78;4967293;28;102235;-51
2022/04/03 05:21:55;;;;;;;5.85;5.00;;;;;;;12.52;65.14;99571.97;4963584;28;102397;-51
2022/04/03 05:24:22;;;;;;;7.28;5.63;;;;;;;12.51;65.32;99567.59;4967856;28;102472;-52
2022/04/03 05:26:50;;;;;;;6.05;5.18;;;;;;;12.51;64.84;99567.59;4962598;28;104090;-51
2022/04/03 05:29:16;;;;;;;6.55;5.47;;;;;;;12.53;65.27;99567.31;4962885;28;102225;-51
2022/04/03 05:31:43;;;;;;;7.22;5.65;;;;;;;12.52;65.19;99569.22;4963271;28;102393;-51
2022/04/03 05:34:09;;;;;;;7.53;5.57;;;;;;;12.53;65.29;99568.09;4968123;28;102499;-52
2022/04/03 05:36:36;;;;;;;7.10;6.10;;;;;;;12.53;65.26;99565.38;4965862;28;104095;-51
2022/04/03 05:39:06;;;;;;;9.02;5.75;;;;;;;12.53;65.15;99570.84;4973536;28;102401;-51
2022/04/03 05:41:33;;;;;;;8.00;6.05;;;;;;;12.53;65.04;99573.56;4973165;28;101758;-52
2022/04/03 05:44:02;;;;;;;9.65;6.20;;;;;;;12.54;65.20;99583.34;4984797;28;102842;-52
2022/04/03 05:46:29;;;;;;;8.20;6.03;;;;;;;12.54;65.20;99586.09;4952955;28;103840;-52
2022/04/03 05:48:55;;;;;;;8.20;5.88;;;;;;;12.55;65.27;99578.69;4960159;28;102486;-51
2022/04/03 05:51:22;;;;;;;6.95;5.53;;;;;;;12.55;65.07;99579.53;4967702;28;102050;-52
2022/04/03 05:53:48;;;;;;;6.68;5.20;;;;;;;12.55;65.25;99578.69;4973529;28;102327;-51
2022/04/03 05:56:15;;;;;;;5.93;5.25;;;;;;;12.56;65.17;99575.66;4972150;28;103870;-52
2022/04/03 05:58:42;;;;;;;7.82;6.10;;;;;;;12.55;65.00;99565.88;4972798;28;102179;-51
2022/04/03 06:01:10;;;;;;;6.80;5.88;;;;;;;12.55;65.23;99559.59;4972804;28;102357;-52
2022/04/03 06:03:37;;;;;;;7.78;5.57;;;;;;;12.54;65.21;99556.06;4973865;28;102785;-52
2022/04/03 06:06:04;;;;;;;7.15;6.35;;;;;;;12.54;65.12;99561.53;4972423;28;104938;-51
2022/04/03 06:08:31;;;;;;;7.15;5.68;;;;;;;12.55;65.24;99562.31;4972455;28;102294;-52
2022/04/03 06:10:57;;;;;;;8.00;6.10;;;;;;;12.55;64.93;99576.81;4972939;28;102385;-52
2022/04/03 06:13:25;;;;;;;7.70;6.45;;;;;;;12.55;65.01;99589.63;4972519;28;102371;-51
2022/04/03 06:15:51;;;;;;;9.07;6.15;;;;;;;12.54;64.97;99588.81;4971997;28;104064;-51
2022/04/03 06:18:19;;;;;;;7.78;5.97;;;;;;;12.55;65.06;99595.91;4972852;28;101933;-52
2022/04/03 06:20:46;;;;;;;7.40;5.78;;;;;;;12.54;65.14;99594.28;4971852;28;102533;-52
2022/04/03 06:23:16;;;;;;;7.82;6.32;;;;;;;12.55;64.95;99609.56;4973340;28;102470;-53
2022/04/03 06:25:46;;;;;;;9.30;6.15;;;;;;;12.55;64.54;99590.44;4971603;28;103943;-52
2022/04/03 06:28:12;;;;;;;7.70;6.00;;;;;;;12.54;65.10;99594.28;4958612;28;101959;-51
2022/04/03 06:30:40;;;;;;;6.70;5.60;;;;;;;12.55;64.63;99601.38;4971937;28;102059;-52
2022/04/03 06:33:07;;;;;;;6.45;5.75;;;;;;;12.55;65.25;99617.75;4973344;28;102555;-51
2022/04/03 06:35:36;;;;;;;8.15;6.18;;;;;;;12.55;65.23;99634.13;4969519;28;103799;-52
2022/04/03 06:38:03;;;;;;;8.13;6.72;;;;;;;12.55;65.24;99638.75;4972205;28;102446;-52
2022/04/03 06:40:31;;;;;;;7.60;6.43;;;;;;;12.55;65.12;99645.03;4970427;28;102403;-52
2022/04/03 06:42:58;;;;;;;7.55;6.50;;;;;;;12.55;65.09;99633.28;4962483;28;102546;-51
2022/04/03 06:45:26;;;;;;;6.28;5.68;;;;;;;12.54;65.20;99637.13;4963967;28;103949;-51
2022/04/03 06:47:53;;;;;;;8.02;6.57;;;;;;;12.53;65.17;99628.16;4967972;28;102083;-52
2022/04/03 06:50:20;;;;;;;9.45;7.18;;;;;;;12.53;65.24;99625.41;4969787;28;102602;-52
2022/04/03 06:52:48;;;;;;;7.38;6.57;;;;;;;12.54;65.19;99618.84;4966618;28;102568;-51
2022/04/03 06:55:15;;;;;;;7.73;6.63;;;;;;;12.54;65.31;99616.09;4966535;28;103846;-52
2022/04/03 06:57:41;;;;;;;8.70;7.00;;;;;;;12.54;65.27;99613.38;4971557;28;102750;-52
2022/04/03 07:00:09;;;;;;;9.07;7.38;;;;;;;12.53;65.13;99606.31;4967780;28;102647;-51
2022/04/03 07:02:36;;;;;;;8.40;7.18;;;;;;;12.54;65.22;99612.56;4970880;28;102899;-52
2022/04/03 07:05:02;;;;;;;8.23;7.25;;;;;;;12.53;65.30;99608.25;4964768;28;104012;-51
2022/04/03 07:07:29;;;;;;;8.88;7.53;;;;;;;12.53;65.26;99611.78;4968297;28;102085;-51
2022/04/03 07:10:00;;;;;;;9.80;7.43;;;;;;;12.53;65.21;99617.22;4971103;28;102215;-52
2022/04/03 07:12:27;;;;;;;14.10;8.15;;;;;;;12.52;65.29;99612.91;4971397;28;102304;-52
2022/04/03 07:14:56;;;;;;;15.43;9.45;;;;;;;12.52;65.28;99623.81;4968272;28;104128;-52
2022/04/03 07:17:22;;;;;;;14.30;8.85;;;;;;;12.52;65.16;99612.91;4959434;28;102570;-51
2022/04/03 07:19:49;;;;;;;15.35;9.27;;;;;;;12.53;65.33;99619.16;4961270;28;103091;-51
2022/04/03 07:22:15;;;;;;;18.45;10.13;;;;;;;12.53;65.01;99619.97;4959735;28;102628;-51
2022/04/03 07:24:42;;;;;;;15.40;9.02;;;;;;;12.52;65.15;99621.09;4960799;28;104422;-51
2022/04/03 07:27:11;;;;;;;11.77;8.45;;;;;;;12.52;65.17;99618.34;4956498;28;102506;-51
2022/04/03 07:29:37;;;;;;;16.60;10.10;;;;;;;12.51;65.15;99622.19;4965996;28;101967;-52
2022/04/03 07:32:06;;;;;;;18.40;10.00;;;;;;;12.50;64.88;99620.56;4953107;28;102283;-52
2022/04/03 07:34:33;;;;;;;13.57;8.35;;;;;;;12.51;65.20;99624.91;4968183;28;104077;-51
2022/04/03 07:37:02;;;;;;;14.43;8.25;;;;;;;12.52;65.18;99618.34;4962237;28;102489;-52
2022/04/03 07:39:30;;;;;;;10.68;8.35;;;;;;;12.51;65.39;99616.72;4963405;28;102540;-51
2022/04/03 07:41:56;;;;;;;17.75;10.18;;;;;;;12.50;64.99;99623.31;4968157;28;102647;-51
2022/04/03 07:44:24;;;;;;;14.02;9.55;;;;;;;12.52;65.19;99621.09;4959610;28;103790;-51
2022/04/03 07:46:51;;;;;;;13.48;9.00;;;;;;;12.51;65.03;99630.38;4962115;28;102563;-51
2022/04/03 07:49:18;;;;;;;15.10;9.95;;;;;;;12.51;64.95;99622.19;4962689;28;101952;-54
2022/04/03 07:51:45;;;;;;;15.63;9.63;;;;;;;12.51;64.90;99627.63;4969815;28;103914;-50
2022/04/03 07:54:11;;;;;;;25.80;11.18;;;;;;;12.49;65.24;99636.16;4957396;28;103912;-53
2022/04/03 07:56:38;;;;;;;22.42;13.60;;;;;;;12.44;64.95;99633.56;4966267;28;102473;-51
2022/04/03 07:59:06;;;;;;;28.95;12.90;;;;;;;12.45;64.72;99643.34;4956493;28;102709;-51
2022/04/03 08:01:34;;;;;;;27.38;12.70;;;;;;;12.45;65.18;99646.06;4960525;28;102237;-51
2022/04/03 08:04:03;;;;;;;22.45;11.85;;;;;;;12.46;65.22;99652.34;4960522;28;103881;-52
2022/04/03 08:06:29;;;;;;;21.45;11.73;;;;;;;12.47;65.07;99660.19;4965075;28;102250;-52
2022/04/03 08:08:57;;;;;;;23.33;11.98;;;;;;;12.47;65.12;99667.59;4965502;28;102308;-53
2022/04/03 08:11:23;;;;;;;25.90;13.20;;;;;;;12.47;65.08;99675.78;4965727;28;102646;-51
2022/04/03 08:13:51;;;;;;;24.05;11.85;;;;;;;12.46;65.04;99679.63;4969684;28;104007;-51
2022/04/03 08:16:17;;;;;;;21.25;12.18;;;;;;;12.46;64.96;99685.06;4967505;28;102859;-51
2022/04/03 08:18:50;;;;;;;22.20;12.13;;;;;;;12.46;65.09;99690.53;4961206;28;102382;-53
2022/04/03 08:21:18;;;;;;;21.15;12.18;;;;;;;12.45;65.47;99699.84;4976014;28;102189;-51
2022/04/03 08:23:45;;;;;;;20.57;12.50;;;;;;;12.46;64.77;99696.00;4959002;28;104117;-51
2022/04/03 08:26:12;;;;;;;18.60;12.25;;;;;;;12.45;64.88;99694.38;4965748;28;102019;-51
2022/04/03 08:28:38;;;;;;;17.98;12.05;;;;;;;12.45;64.92;99700.66;4971299;28;102544;-51
2022/04/03 08:31:05;;;;;;;23.77;12.48;;;;;;;12.46;64.92;99712.38;4967226;28;102179;-51
2022/04/03 08:33:32;;;;;;;17.98;12.07;;;;;;;12.45;64.96;99705.31;4962493;28;104112;-52
2022/04/03 08:36:00;;;;;;;20.15;12.80;;;;;;;12.45;65.01;99706.09;4973247;28;102258;-51
2022/04/03 08:38:26;;;;;;;18.88;11.80;;;;;;;12.44;64.68;99701.78;4973873;28;102382;-51
2022/04/03 08:40:53;;;;;;;17.45;11.50;;;;;;;12.45;64.86;99711.56;4975407;28;102724;-52
2022/04/03 08:43:20;;;;;;;16.92;12.38;;;;;;;12.46;64.73;99712.38;4973447;28;103913;-54
2022/04/03 08:45:47;;;;;;;17.48;12.18;;;;;;;12.46;64.83;99715.91;4974438;28;101885;-51
2022/04/03 08:48:19;;;;;;;18.52;12.18;;;;;;;12.44;64.92;99731.78;4968125;28;102473;-51
2022/04/03 08:50:50;;;;;;;16.52;11.80;;;;;;;12.45;64.80;99732.59;4963834;28;102249;-52
2022/04/03 08:53:22;;;;;;;18.05;12.05;;;;;;;12.46;64.81;99731.47;4968486;28;104129;-52
2022/04/03 08:55:49;;;;;;;19.67;12.15;;;;;;;12.46;64.85;99728.75;4971118;28;101927;-51
2022/04/03 08:58:16;;;;;;;15.70;11.57;;;;;;;12.45;64.85;99733.41;4974012;28;102779;-51
2022/04/03 09:00:43;;;;;;;17.88;11.82;;;;;;;12.45;64.80;99732.59;4954948;28;102360;-51
2022/04/03 09:03:12;;;;;;;16.27;11.40;;;;;;;12.46;64.74;99745.13;4953772;28;103922;-51
2022/04/03 09:05:40;;;;;;;;;;;;;;;12.45;64.86;99738.06;4955569;28;102192;-51
2022/04/03 09:08:09;;;;;;;17.95;11.05;;;;;;;12.45;65.03;99754.41;4965303;28;101984;-51
2022/04/03 09:10:38;;;;;;;14.68;10.80;;;;;;;12.45;64.98;99757.16;4974640;28;102785;-54
2022/04/03 09:13:24;;;;;;;19.90;11.90;;;;;;;12.45;64.87;99770.78;4971031;28;104761;-51
2022/04/03 09:15:51;;;;;;;16.73;11.00;;;;;;;12.44;64.63;99769.16;4973839;28;101858;-51
2022/04/03 09:18:18;;;;;;;14.70;11.15;;;;;;;12.44;64.46;99772.72;4972357;28;102051;-51
2022/04/03 09:20:47;;;;;;;15.25;10.98;;;;;;;12.45;64.67;99776.25;4973309;28;102567;-51
2022/04/03 09:23:17;;;;;;;17.63;11.68;;;;;;;12.43;64.68;99773.81;4973499;28;103901;-51
2022/04/03 09:25:46;;;;;;;16.02;10.82;;;;;;;12.43;64.73;99779.28;4973439;28;102176;-51
2022/04/03 09:28:14;;;;;;;14.75;10.85;;;;;;;12.44;64.75;99774.63;4970105;28;102016;-51
2022/04/03 09:30:43;;;;;;;14.27;11.20;;;;;;;12.45;64.75;99787.16;4963337;28;102458;-52
2022/04/03 09:33:15;;;;;;;14.05;10.63;;;;;;;12.44;64.73;99783.63;4969894;28;103929;-51
2022/04/03 09:35:58;;;;;;;13.10;10.68;;;;;;;12.45;64.54;99784.44;4966441;28;102077;-51
2022/04/03 09:38:29;;;;;;;15.82;11.45;;;;;;;12.45;64.94;99798.88;4973623;28;103789;-51
2022/04/03 09:40:59;;;;;;;13.98;10.90;;;;;;;12.45;64.64;99803.53;4986396;28;102502;-52
2022/04/03 09:43:28;;;;;;;15.13;11.90;;;;;;;12.45;64.85;99803.53;4972389;28;103971;-51
2022/04/03 09:45:56;;;;;;;14.60;11.10;;;;;;;12.45;64.42;99796.16;4979527;28;102388;-52
2022/04/03 09:48:28;;;;;;;13.68;11.25;;;;;;;12.45;64.49;99798.09;4992687;28;102344;-51
2022/04/03 09:51:03;;;;;;;16.83;11.63;;;;;;;12.44;64.64;99797.28;4985497;28;102301;-51
2022/04/03 09:53:41;;;;;;;17.40;12.27;;;;;;;12.44;64.70;99808.19;4988803;28;103882;-52
2022/04/03 09:56:13;;;;;;;14.02;10.63;;;;;;;12.45;64.63;99803.53;4987838;28;102020;-52
2022/04/03 09:58:58;;;;;;;;;;;;;;;12.43;64.74;99809.28;4972718;28;102657;-52
2022/04/03 10:01:27;;;;;;;15.73;10.85;;;;;;;12.43;64.70;99797.56;4985687;28;102326;-51
2022/04/03 10:03:55;;;;;;;18.15;11.65;;;;;;;12.43;64.59;99794.84;4991096;28;103891;-52
2022/04/03 10:06:23;;;;;;;14.02;10.50;;;;;;;12.43;64.58;99797.56;4989042;28;102635;-51
2022/04/03 10:08:50;;;;;;;13.98;10.60;;;;;;;12.44;64.62;99801.91;4972165;28;102562;-51
2022/04/03 10:11:22;;;;;;;13.98;10.93;;;;;;;12.45;64.76;99803.53;4973850;28;102120;-51
2022/04/03 10:13:49;;;;;;;14.77;10.98;;;;;;;12.45;64.51;99811.72;4981154;28;103819;-51
2022/04/03 10:16:19;;;;;;;15.40;11.00;;;;;;;12.46;64.44;99821.53;4991933;28;103053;-52
2022/04/03 10:18:47;;;;;;;15.63;11.77;;;;;;;12.46;64.45;99830.50;4986761;28;101842;-51
2022/04/03 10:21:21;;;;;;;14.52;11.60;;;;;;;12.45;64.57;99837.09;4982446;28;102614;-51
2022/04/03 10:23:52;;;;;;;12.20;10.35;;;;;;;12.46;64.77;99837.91;4971862;28;103854;-51
2022/04/03 10:26:23;;;;;;;15.43;10.80;;;;;;;12.47;64.58;99834.03;4970594;28;102490;-51
2022/04/03 10:28:54;;;;;;;13.85;10.52;;;;;;;12.47;64.43;99844.97;4971831;28;103079;-53
2022/04/03 10:31:22;;;;;;;12.23;9.43;;;;;;;12.48;64.53;99846.59;4972321;28;102746;-51
2022/04/03 10:33:50;;;;;;;12.45;9.77;;;;;;;12.48;64.59;99846.59;4970897;28;102916;-51
2022/04/03 10:36:24;;;;;;;12.73;9.65;;;;;;;12.48;64.52;99852.84;4972444;28;102393;-51
2022/04/03 10:39:01;;;;;;;12.40;9.77;;;;;;;12.48;64.43;99852.84;4969342;28;102600;-51
2022/04/03 10:41:31;;;;;;;12.65;9.55;;;;;;;12.49;64.53;99861.84;4969770;28;102173;-51
2022/04/03 10:44:10;;;;;;;12.80;9.57;;;;;;;12.49;64.56;99859.13;4969092;28;103946;-51
2022/04/03 10:47:10;;;;;;;11.52;9.52;;;;;;;12.49;64.67;99864.56;4972045;28;102185;-51
2022/04/03 10:49:43;;;;;;;12.00;9.25;;;;;;;12.49;64.46;99870.03;4970264;28;102432;-52
2022/04/03 10:52:23;;;;;;;12.07;9.35;;;;;;;12.48;64.47;99871.97;4958959;28;102263;-51
2022/04/03 10:54:52;;;;;;;11.68;9.98;;;;;;;12.48;64.38;99880.16;4969003;28;103875;-52
2022/04/03 10:57:33;;;;;;;;;;;;;;;12.48;64.50;99890.25;4972874;28;101816;-52
2022/04/03 11:00:32;;;;;;;13.27;9.98;;;;;;;12.48;64.36;99884.81;4972121;28;102557;-51
2022/04/03 11:03:01;;;;;;;10.32;8.48;;;;;;;12.48;64.35;99890.25;4953540;28;102005;-51
2022/04/03 11:05:42;;;;;;;13.48;10.23;;;;;;;12.48;64.29;99895.72;4963511;28;104125;-51
2022/04/03 11:08:38;;;;;;;11.75;9.82;;;;;;;12.48;64.45;99891.06;4958745;28;102347;-51
2022/04/03 11:11:09;;;;;;;10.30;8.98;;;;;;;12.49;64.55;99883.69;4971376;28;102203;-51
2022/04/03 11:13:42;;;;;;;10.55;8.48;;;;;;;12.50;64.66;99879.84;4976413;28;102536;-51
2022/04/03 11:16:10;;;;;;;10.50;8.60;;;;;;;12.49;64.45;99886.41;4975147;28;103982;-51
2022/04/03 11:18:41;;;;;;;11.55;8.82;;;;;;;12.49;64.39;99879.03;4973724;28;102386;-51
2022/04/03 11:21:10;;;;;;;11.55;9.45;;;;;;;12.50;64.44;99882.56;4974929;28;102961;-51
2022/04/03 11:23:39;;;;;;;9.37;8.37;;;;;;;12.52;64.23;99876.81;4976097;28;102655;-51
2022/04/03 11:26:07;;;;;;;9.70;8.68;;;;;;;12.51;64.36;99878.72;4960483;28;103873;-51
2022/04/03 11:28:34;;;;;;;10.55;9.45;;;;;;;12.51;64.55;99878.72;4963045;28;102174;-51